Stratford, CT

11:29 AM EDT on May 01, 2016 (GMT -0400)
Nichols Elementary School | | Change Station

Elev 108 ft 41.20 °N, 73.14 °W | Updated 2 minutes ago

Light Rain
Light Rain
48.2 °F
Feels Like 48 °F
N
1.0
Wind Variable Wind from ENE
Gusts 2.0 mph

Today
High -- | Low -- °F
--% Chance of Precip.
Yesterday
High -- | Low -- °F
Precip. -- in
Pressure 30.23 in
Visibility 10.0 miles
Clouds Overcast 6000 ft
Windchill 48 °F
Dew Point 44 °F
Humidity 87%
Rainfall in
Snow Depth Not available.
5:49 AM 7:50 PM
Waning Crescent, 34% visible
METAR KBDR 011452Z 11006KT 10SM -RA OVC060 09/06 A3023 RMK AO2 RAE23B43 SLP237 P0001 60002 T00940061 50000 $
Pressure 30.23 in
Visibility 10.0 miles
Clouds Overcast 6000 ft
Windchill 48 °F
Dew Point 44 °F
Humidity 87%
Rainfall in
Snow Depth Not available.
5:49 AM 7:50 PM
Waning Crescent, 34% visible
METAR KBDR 011452Z 11006KT 10SM -RA OVC060 09/06 A3023 RMK AO2 RAE23B43 SLP237 P0001 60002 T00940061 50000 $

10-Day Weather Forecast

Almanac

Astronomy

May. 01, 2016 Rise Set
Actual Time
Civil Twilight
Nautical Twilight
Astronomical Twilight
Moon
Length of Visible Light
Length of Day
Tomorrow will be .
, % of the Moon is Illuminated

Today's Extremes

State Highs State Lows

Community

WunderPhotos

Upload Photos

1,909,212 photos uploaded!

WunderBlog® & News

Nearby

Air Quality

  Air Quality AQ Index Pollutant
Not available.

Snow Depth

Station Depth Elevation

Earthquake Activity

City Distance Mag. Time & Date
Minimum magnitude displayed is 2.5.

Coastal Water Temperatures

Place Temperature

Stations

Nearby Weather Stations

Station Location Temp. Windchill Dew Point Humidity Wind Precip. Elev Updated Type
                   

Watches & Warnings

There are currently no watches in effect.